sensor_id;sensor_type;location;lat;lon;timestamp;pressure;altitude;pressure_sealevel;temperature;humidity
60244;BME280;46106;51.468;5.814;2023-07-22T00:02:15;101076.66;;;15.49;100.00
60244;BME280;46106;51.468;5.814;2023-07-22T00:05:01;101079.44;;;15.49;100.00
60244;BME280;46106;51.468;5.814;2023-07-22T00:07:47;101082.06;;;15.40;100.00
60244;BME280;46106;51.468;5.814;2023-07-22T00:10:33;101079.72;;;15.55;100.00
60244;BME280;46106;51.468;5.814;2023-07-22T00:13:18;101075.81;;;15.48;100.00
60244;BME280;46106;51.468;5.814;2023-07-22T00:16:04;101078.06;;;15.62;100.00
60244;BME280;46106;51.468;5.814;2023-07-22T00:18:50;101063.56;;;15.60;100.00
60244;BME280;46106;51.468;5.814;2023-07-22T00:21:36;101071.88;;;15.51;100.00
60244;BME280;46106;51.468;5.814;2023-07-22T00:24:21;101074.03;;;15.57;100.00
60244;BME280;46106;51.468;5.814;2023-07-22T00:27:08;101078.41;;;15.50;100.00
60244;BME280;46106;51.468;5.814;2023-07-22T00:29:54;101073.34;;;15.45;100.00
60244;BME280;46106;51.468;5.814;2023-07-22T00:32:40;101077.69;;;15.38;100.00
60244;BME280;46106;51.468;5.814;2023-07-22T00:35:26;101065.34;;;15.42;100.00
60244;BME280;46106;51.468;5.814;2023-07-22T00:38:12;101067.69;;;15.47;100.00
60244;BME280;46106;51.468;5.814;2023-07-22T00:40:58;101073.19;;;15.47;100.00
60244;BME280;46106;51.468;5.814;2023-07-22T00:43:43;101072.31;;;15.46;100.00
60244;BME280;46106;51.468;5.814;2023-07-22T00:46:29;101065.34;;;15.42;100.00
60244;BME280;46106;51.468;5.814;2023-07-22T00:49:16;101067.09;;;15.43;100.00
60244;BME280;46106;51.468;5.814;2023-07-22T00:52:02;101065.47;;;15.50;100.00
60244;BME280;46106;51.468;5.814;2023-07-22T00:54:48;101064.66;;;15.40;100.00
60244;BME280;46106;51.468;5.814;2023-07-22T00:57:34;101055.19;;;15.42;100.00
60244;BME280;46106;51.468;5.814;2023-07-22T01:00:20;101059.13;;;15.40;100.00
60244;BME280;46106;51.468;5.814;2023-07-22T01:03:06;101058.66;;;15.44;100.00
60244;BME280;46106;51.468;5.814;2023-07-22T01:05:53;101058.97;;;15.51;100.00
60244;BME280;46106;51.468;5.814;2023-07-22T01:08:40;101065.34;;;15.42;100.00
60244;BME280;46106;51.468;5.814;2023-07-22T01:11:26;101063.47;;;15.42;100.00
60244;BME280;46106;51.468;5.814;2023-07-22T01:14:11;101054.59;;;15.49;100.00
60244;BME280;46106;51.468;5.814;2023-07-22T01:16:57;101062.19;;;15.37;100.00
60244;BME280;46106;51.468;5.814;2023-07-22T01:19:43;101056.38;;;15.30;100.00
60244;BME280;46106;51.468;5.814;2023-07-22T01:22:30;101050.88;;;15.30;100.00
60244;BME280;46106;51.468;5.814;2023-07-22T01:25:16;101054.47;;;15.31;100.00
60244;BME280;46106;51.468;5.814;2023-07-22T01:28:02;101055.34;;;15.21;100.00
60244;BME280;46106;51.468;5.814;2023-07-22T01:30:48;101044.03;;;15.24;100.00
60244;BME280;46106;51.468;5.814;2023-07-22T01:33:34;101044.19;;;15.23;100.00
60244;BME280;46106;51.468;5.814;2023-07-22T01:36:20;101040.84;;;15.29;100.00
60244;BME280;46106;51.468;5.814;2023-07-22T01:39:05;101041.88;;;15.18;100.00
60244;BME280;46106;51.468;5.814;2023-07-22T01:41:51;101037.38;;;15.17;100.00
60244;BME280;46106;51.468;5.814;2023-07-22T01:44:37;101035.91;;;15.13;100.00
60244;BME280;46106;51.468;5.814;2023-07-22T01:47:22;101027.91;;;15.20;100.00
60244;BME280;46106;51.468;5.814;2023-07-22T01:50:09;101035.47;;;15.08;100.00
60244;BME280;46106;51.468;5.814;2023-07-22T01:52:57;101033.63;;;14.99;100.00
60244;BME280;46106;51.468;5.814;2023-07-22T01:55:43;101036.53;;;15.07;100.00
60244;BME280;46106;51.468;5.814;2023-07-22T01:58:29;101038.81;;;15.02;100.00
60244;BME280;46106;51.468;5.814;2023-07-22T02:01:15;101036.25;;;15.00;100.00
60244;BME280;46106;51.468;5.814;2023-07-22T02:04:01;101042.03;;;14.97;100.00
60244;BME280;46106;51.468;5.814;2023-07-22T02:06:47;101038.25;;;14.88;100.00
60244;BME280;46106;51.468;5.814;2023-07-22T02:09:33;101036.81;;;14.94;100.00
60244;BME280;46106;51.468;5.814;2023-07-22T02:12:19;101037.97;;;14.92;100.00
60244;BME280;46106;51.468;5.814;2023-07-22T02:15:05;101033.91;;;14.86;100.00
60244;BME280;46106;51.468;5.814;2023-07-22T02:17:51;101038.53;;;14.85;100.00
60244;BME280;46106;51.468;5.814;2023-07-22T02:20:37;101034.50;;;14.89;100.00
60244;BME280;46106;51.468;5.814;2023-07-22T02:23:24;101034.63;;;14.98;100.00
60244;BME280;46106;51.468;5.814;2023-07-22T02:26:10;101034.19;;;14.93;100.00
60244;BME280;46106;51.468;5.814;2023-07-22T02:28:55;101033.91;;;14.96;100.00
60244;BME280;46106;51.468;5.814;2023-07-22T02:31:41;101025.50;;;14.97;100.00
60244;BME280;46106;51.468;5.814;2023-07-22T02:34:27;101028.69;;;14.93;100.00
60244;BME280;46106;51.468;5.814;2023-07-22T02:37:12;101030.25;;;14.85;100.00
60244;BME280;46106;51.468;5.814;2023-07-22T02:39:58;101023.16;;;14.93;100.00
60244;BME280;46106;51.468;5.814;2023-07-22T02:42:44;101021.84;;;14.87;100.00
60244;BME280;46106;51.468;5.814;2023-07-22T02:45:29;101023.47;;;14.89;100.00
60244;BME280;46106;51.468;5.814;2023-07-22T02:48:15;101023.88;;;14.85;100.00
60244;BME280;46106;51.468;5.814;2023-07-22T02:51:08;101017.94;;;14.89;100.00
60244;BME280;46106;51.468;5.814;2023-07-22T02:53:54;101022.88;;;14.86;100.00
60244;BME280;46106;51.468;5.814;2023-07-22T02:56:40;101017.09;;;14.79;100.00
60244;BME280;46106;51.468;5.814;2023-07-22T02:59:26;101024.75;;;14.76;100.00
60244;BME280;46106;51.468;5.814;2023-07-22T03:02:12;101024.94;;;14.74;100.00
60244;BME280;46106;51.468;5.814;2023-07-22T03:04:59;101015.31;;;14.68;100.00
60244;BME280;46106;51.468;5.814;2023-07-22T03:07:45;101020.56;;;14.81;100.00
60244;BME280;46106;51.468;5.814;2023-07-22T03:10:31;101022.00;;;14.85;100.00
60244;BME280;46106;51.468;5.814;2023-07-22T03:13:17;101018.81;;;14.70;100.00
60244;BME280;46106;51.468;5.814;2023-07-22T03:16:04;101026.06;;;14.72;100.00
60244;BME280;46106;51.468;5.814;2023-07-22T03:18:50;101021.13;;;14.65;100.00
60244;BME280;46106;51.468;5.814;2023-07-22T03:21:36;101021.28;;;14.64;100.00
60244;BME280;46106;51.468;5.814;2023-07-22T03:24:22;101022.16;;;14.64;100.00
60244;BME280;46106;51.468;5.814;2023-07-22T03:27:08;101026.06;;;14.62;100.00
60244;BME280;46106;51.468;5.814;2023-07-22T03:29:54;101021.97;;;14.46;100.00
60244;BME280;46106;51.468;5.814;2023-07-22T03:32:41;101029.63;;;14.43;100.00
60244;BME280;46106;51.468;5.814;2023-07-22T03:35:28;101030.38;;;14.45;100.00
60244;BME280;46106;51.468;5.814;2023-07-22T03:38:13;101039.78;;;14.52;100.00
60244;BME280;46106;51.468;5.814;2023-07-22T03:40:59;101034.13;;;14.44;100.00
60244;BME280;46106;51.468;5.814;2023-07-22T03:43:45;101043.53;;;14.41;100.00
60244;BME280;46106;51.468;5.814;2023-07-22T03:46:31;101035.84;;;14.35;100.00
60244;BME280;46106;51.468;5.814;2023-07-22T03:49:16;101046.28;;;14.22;100.00
60244;BME280;46106;51.468;5.814;2023-07-22T03:52:02;101050.88;;;14.21;100.00
60244;BME280;46106;51.468;5.814;2023-07-22T03:54:48;101049.75;;;14.24;100.00
60244;BME280;46106;51.468;5.814;2023-07-22T03:57:34;101048.25;;;14.20;100.00
60244;BME280;46106;51.468;5.814;2023-07-22T04:00:20;101046.81;;;14.15;100.00
60244;BME280;46106;51.468;5.814;2023-07-22T04:03:07;101041.59;;;14.12;100.00
60244;BME280;46106;51.468;5.814;2023-07-22T04:05:54;101036.25;;;14.21;100.00
60244;BME280;46106;51.468;5.814;2023-07-22T04:08:39;101043.34;;;14.13;100.00
60244;BME280;46106;51.468;5.814;2023-07-22T04:11:26;101047.97;;;14.13;100.00
60244;BME280;46106;51.468;5.814;2023-07-22T04:14:12;101048.34;;;13.98;100.00
60244;BME280;46106;51.468;5.814;2023-07-22T04:16:58;101046.34;;;14.01;100.00
60244;BME280;46106;51.468;5.814;2023-07-22T04:19:44;101045.94;;;14.05;100.00
60244;BME280;46106;51.468;5.814;2023-07-22T04:22:30;101042.72;;;14.10;100.00
60244;BME280;46106;51.468;5.814;2023-07-22T04:25:15;101034.50;;;14.20;100.00
60244;BME280;46106;51.468;5.814;2023-07-22T04:28:01;101048.50;;;14.07;100.00
60244;BME280;46106;51.468;5.814;2023-07-22T04:30:55;101044.63;;;14.09;100.00
60244;BME280;46106;51.468;5.814;2023-07-22T04:33:41;101042.44;;;14.13;100.00
60244;BME280;46106;51.468;5.814;2023-07-22T04:36:27;101050.41;;;14.06;100.00
60244;BME280;46106;51.468;5.814;2023-07-22T04:39:13;101053.19;;;14.16;100.00
60244;BME280;46106;51.468;5.814;2023-07-22T04:41:58;101051.84;;;14.01;100.00
60244;BME280;46106;51.468;5.814;2023-07-22T04:44:44;101059.81;;;14.04;100.00
60244;BME280;46106;51.468;5.814;2023-07-22T04:47:30;101055.50;;;14.11;100.00
60244;BME280;46106;51.468;5.814;2023-07-22T04:50:16;101051.00;;;14.10;100.00
60244;BME280;46106;51.468;5.814;2023-07-22T04:53:02;101053.72;;;14.00;100.00
60244;BME280;46106;51.468;5.814;2023-07-22T04:55:48;101054.00;;;14.07;100.00
60244;BME280;46106;51.468;5.814;2023-07-22T04:58:33;101048.84;;;14.13;100.00
60244;BME280;46106;51.468;5.814;2023-07-22T05:01:19;101052.44;;;14.04;100.00
60244;BME280;46106;51.468;5.814;2023-07-22T05:04:05;101052.47;;;14.14;100.00
60244;BME280;46106;51.468;5.814;2023-07-22T05:06:51;101059.44;;;14.28;100.00
60244;BME280;46106;51.468;5.814;2023-07-22T05:09:37;101048.88;;;14.33;100.00
60244;BME280;46106;51.468;5.814;2023-07-22T05:12:23;101053.88;;;14.59;100.00
60244;BME280;46106;51.468;5.814;2023-07-22T05:15:12;101051.59;;;14.74;100.00
60244;BME280;46106;51.468;5.814;2023-07-22T05:17:58;101055.69;;;14.89;100.00
60244;BME280;46106;51.468;5.814;2023-07-22T05:20:44;101055.50;;;15.10;100.00
60244;BME280;46106;51.468;5.814;2023-07-22T05:23:30;101053.50;;;15.12;100.00
60244;BME280;46106;51.468;5.814;2023-07-22T05:26:16;101056.25;;;15.12;100.00
60244;BME280;46106;51.468;5.814;2023-07-22T05:29:02;101062.91;;;15.19;100.00
60244;BME280;46106;51.468;5.814;2023-07-22T05:31:47;101060.56;;;15.24;100.00
60244;BME280;46106;51.468;5.814;2023-07-22T05:34:33;101061.91;;;15.20;100.00
60244;BME280;46106;51.468;5.814;2023-07-22T05:37:19;101066.72;;;15.18;100.00
60244;BME280;46106;51.468;5.814;2023-07-22T05:40:05;101062.03;;;15.29;100.00
60244;BME280;46106;51.468;5.814;2023-07-22T05:42:52;101070.75;;;15.14;100.00
60244;BME280;46106;51.468;5.814;2023-07-22T05:45:38;101069.16;;;15.21;100.00
60244;BME280;46106;51.468;5.814;2023-07-22T05:48:24;101057.09;;;15.32;100.00
60244;BME280;46106;51.468;5.814;2023-07-22T05:51:10;101062.19;;;15.37;100.00
60244;BME280;46106;51.468;5.814;2023-07-22T05:53:55;101051.25;;;15.55;100.00
60244;BME280;46106;51.468;5.814;2023-07-22T05:56:41;101057.56;;;15.75;100.00
60244;BME280;46106;51.468;5.814;2023-07-22T05:59:27;101059.22;;;15.77;100.00
60244;BME280;46106;51.468;5.814;2023-07-22T06:02:13;101044.84;;;16.02;100.00
60244;BME280;46106;51.468;5.814;2023-07-22T06:04:59;101054.13;;;16.10;100.00
60244;BME280;46106;51.468;5.814;2023-07-22T06:07:44;101051.97;;;16.04;100.00
60244;BME280;46106;51.468;5.814;2023-07-22T06:10:31;101044.53;;;16.05;100.00
60244;BME280;46106;51.468;5.814;2023-07-22T06:13:17;101041.69;;;15.96;100.00
60244;BME280;46106;51.468;5.814;2023-07-22T06:16:03;101048.06;;;16.25;100.00
60244;BME280;46106;51.468;5.814;2023-07-22T06:18:49;101043.38;;;16.35;100.00
60244;BME280;46106;51.468;5.814;2023-07-22T06:21:34;101044.44;;;16.52;100.00
60244;BME280;46106;51.468;5.814;2023-07-22T06:24:20;101044.88;;;16.47;100.00
60244;BME280;46106;51.468;5.814;2023-07-22T06:27:06;101048.72;;;16.64;100.00
60244;BME280;46106;51.468;5.814;2023-07-22T06:29:51;101047.19;;;16.52;100.00
60244;BME280;46106;51.468;5.814;2023-07-22T06:32:38;101055.47;;;16.52;100.00
60244;BME280;46106;51.468;5.814;2023-07-22T06:35:24;101047.66;;;16.47;100.00
60244;BME280;46106;51.468;5.814;2023-07-22T06:38:10;101049.44;;;17.20;100.00
60244;BME280;46106;51.468;5.814;2023-07-22T06:40:56;101043.19;;;17.89;100.00
60244;BME280;46106;51.468;5.814;2023-07-22T06:43:42;101050.88;;;18.03;100.00
60244;BME280;46106;51.468;5.814;2023-07-22T06:46:28;101050.19;;;17.75;100.00
60244;BME280;46106;51.468;5.814;2023-07-22T06:49:14;101045.72;;;17.56;100.00
60244;BME280;46106;51.468;5.814;2023-07-22T06:51:59;101049.81;;;17.96;100.00
60244;BME280;46106;51.468;5.814;2023-07-22T06:54:46;101045.72;;;17.56;100.00
60244;BME280;46106;51.468;5.814;2023-07-22T06:57:33;101043.28;;;17.53;100.00
60244;BME280;46106;51.468;5.814;2023-07-22T07:00:19;101045.72;;;17.82;100.00
60244;BME280;46106;51.468;5.814;2023-07-22T07:03:04;101042.53;;;17.69;100.00
60244;BME280;46106;51.468;5.814;2023-07-22T07:05:57;101037.09;;;17.59;100.00
60244;BME280;46106;51.468;5.814;2023-07-22T07:08:43;101041.00;;;17.48;100.00
60244;BME280;46106;51.468;5.814;2023-07-22T07:11:28;101030.75;;;17.67;100.00
60244;BME280;46106;51.468;5.814;2023-07-22T07:14:15;101033.06;;;17.79;100.00
60244;BME280;46106;51.468;5.814;2023-07-22T07:17:01;101034.91;;;17.97;100.00
60244;BME280;46106;51.468;5.814;2023-07-22T07:19:47;101029.94;;;18.00;100.00
60244;BME280;46106;51.468;5.814;2023-07-22T07:22:33;101023.34;;;18.02;100.00
60244;BME280;46106;51.468;5.814;2023-07-22T07:25:19;101029.47;;;18.22;100.00
60244;BME280;46106;51.468;5.814;2023-07-22T07:28:04;101016.56;;;18.47;100.00
60244;BME280;46106;51.468;5.814;2023-07-22T07:30:50;101017.38;;;18.31;100.00
60244;BME280;46106;51.468;5.814;2023-07-22T07:33:36;101022.06;;;18.98;100.00
60244;BME280;46106;51.468;5.814;2023-07-22T07:36:22;101014.75;;;19.21;100.00
60244;BME280;46106;51.468;5.814;2023-07-22T07:39:07;101018.06;;;18.92;100.00
60244;BME280;46106;51.468;5.814;2023-07-22T07:41:53;101013.88;;;19.37;100.00
60244;BME280;46106;51.468;5.814;2023-07-22T07:44:39;101014.75;;;18.97;100.00
60244;BME280;46106;51.468;5.814;2023-07-22T07:47:25;101019.63;;;19.36;100.00
60244;BME280;46106;51.468;5.814;2023-07-22T07:50:10;101023.75;;;19.64;100.00
60244;BME280;46106;51.468;5.814;2023-07-22T07:52:56;101039.56;;;19.39;100.00
60244;BME280;46106;51.468;5.814;2023-07-22T07:55:43;101036.13;;;19.04;100.00
60244;BME280;46106;51.468;5.814;2023-07-22T07:58:29;101031.19;;;18.73;100.00
60244;BME280;46106;51.468;5.814;2023-07-22T08:01:15;101035.88;;;18.81;100.00
60244;BME280;46106;51.468;5.814;2023-07-22T08:04:01;101041.78;;;18.78;100.00
60244;BME280;46106;51.468;5.814;2023-07-22T08:06:47;101037.97;;;18.71;100.00
60244;BME280;46106;51.468;5.814;2023-07-22T08:09:33;101036.78;;;18.98;100.00
60244;BME280;46106;51.468;5.814;2023-07-22T08:12:18;101043.53;;;18.79;100.00
60244;BME280;46106;51.468;5.814;2023-07-22T08:15:04;101039.91;;;18.87;100.00
60244;BME280;46106;51.468;5.814;2023-07-22T08:17:50;101048.25;;;19.20;100.00
60244;BME280;46106;51.468;5.814;2023-07-22T08:20:36;101047.03;;;19.39;100.00
60244;BME280;46106;51.468;5.814;2023-07-22T08:23:22;101044.78;;;19.09;100.00
60244;BME280;46106;51.468;5.814;2023-07-22T08:26:08;101052.94;;;19.27;100.00
60244;BME280;46106;51.468;5.814;2023-07-22T08:28:53;101046.00;;;19.56;100.00
60244;BME280;46106;51.468;5.814;2023-07-22T08:31:39;101040.06;;;19.51;100.00
60244;BME280;46106;51.468;5.814;2023-07-22T08:34:25;101038.31;;;19.67;100.00
60244;BME280;46106;51.468;5.814;2023-07-22T08:37:10;101041.66;;;19.45;100.00
60244;BME280;46106;51.468;5.814;2023-07-22T08:39:57;101047.72;;;19.33;100.00
60244;BME280;46106;51.468;5.814;2023-07-22T08:42:45;101039.47;;;19.97;100.00
60244;BME280;46106;51.468;5.814;2023-07-22T08:45:32;101045.22;;;19.87;100.00
60244;BME280;46106;51.468;5.814;2023-07-22T08:48:26;101044.88;;;19.90;100.00
60244;BME280;46106;51.468;5.814;2023-07-22T08:51:17;101047.00;;;20.28;100.00
60244;BME280;46106;51.468;5.814;2023-07-22T08:54:03;101041.16;;;20.85;100.00
60244;BME280;46106;51.468;5.814;2023-07-22T08:56:50;101038.41;;;20.77;100.00
60244;BME280;46106;51.468;5.814;2023-07-22T08:59:36;101038.97;;;20.33;100.00
60244;BME280;46106;51.468;5.814;2023-07-22T09:02:23;101042.38;;;21.29;100.00
60244;BME280;46106;51.468;5.814;2023-07-22T09:05:10;101042.31;;;21.37;99.93
60244;BME280;46106;51.468;5.814;2023-07-22T09:07:56;101048.72;;;21.38;99.33
60244;BME280;46106;51.468;5.814;2023-07-22T09:10:42;101050.09;;;21.42;98.52
60244;BME280;46106;51.468;5.814;2023-07-22T09:13:28;101046.16;;;21.74;96.51
60244;BME280;46106;51.468;5.814;2023-07-22T09:16:15;101048.50;;;22.15;92.76
60244;BME280;46106;51.468;5.814;2023-07-22T09:19:03;101044.53;;;22.10;92.90
60244;BME280;46106;51.468;5.814;2023-07-22T09:21:49;101046.28;;;22.77;89.13
60244;BME280;46106;51.468;5.814;2023-07-22T09:24:35;101046.03;;;22.57;88.75
60244;BME280;46106;51.468;5.814;2023-07-22T09:27:32;101043.25;;;23.15;84.61
60244;BME280;46106;51.468;5.814;2023-07-22T09:33:20;101041.66;;;23.27;83.21
60244;BME280;46106;51.468;5.814;2023-07-22T09:36:06;101044.44;;;22.33;87.45
60244;BME280;46106;51.468;5.814;2023-07-22T09:39:00;101034.13;;;23.06;82.41
60244;BME280;46106;51.468;5.814;2023-07-22T09:41:48;101038.19;;;23.47;82.35
60244;BME280;46106;51.468;5.814;2023-07-22T09:44:34;101036.59;;;23.66;79.86
60244;BME280;46106;51.468;5.814;2023-07-22T09:47:22;101037.09;;;23.48;78.91
60244;BME280;46106;51.468;5.814;2023-07-22T09:50:20;101036.66;;;23.44;78.54
60244;BME280;46106;51.468;5.814;2023-07-22T09:53:07;101022.38;;;24.24;75.62
60244;BME280;46106;51.468;5.814;2023-07-22T09:55:53;101025.84;;;24.33;75.02
60244;BME280;46106;51.468;5.814;2023-07-22T09:58:39;101028.22;;;23.66;78.47
60244;BME280;46106;51.468;5.814;2023-07-22T10:01:25;101026.53;;;23.00;77.55
60244;BME280;46106;51.468;5.814;2023-07-22T10:04:12;101023.84;;;23.07;76.98
60244;BME280;46106;51.468;5.814;2023-07-22T10:07:01;101019.19;;;23.99;74.34
60244;BME280;46106;51.468;5.814;2023-07-22T10:09:47;101026.69;;;23.13;74.90
60244;BME280;46106;51.468;5.814;2023-07-22T10:12:34;101024.91;;;22.69;76.29
60244;BME280;46106;51.468;5.814;2023-07-22T10:15:20;101030.31;;;21.75;80.42
60244;BME280;46106;51.468;5.814;2023-07-22T10:18:05;101025.00;;;21.80;82.83
60244;BME280;46106;51.468;5.814;2023-07-22T10:20:51;101026.38;;;22.14;82.91
60244;BME280;46106;51.468;5.814;2023-07-22T10:23:38;101018.97;;;22.06;83.19
60244;BME280;46106;51.468;5.814;2023-07-22T10:26:25;101025.78;;;21.89;85.71
60244;BME280;46106;51.468;5.814;2023-07-22T10:29:11;101022.50;;;22.30;81.89
60244;BME280;46106;51.468;5.814;2023-07-22T10:31:59;101015.59;;;21.96;84.36
60244;BME280;46106;51.468;5.814;2023-07-22T10:34:44;101017.63;;;22.17;85.46
60244;BME280;46106;51.468;5.814;2023-07-22T10:37:32;101019.50;;;22.16;84.40
60244;BME280;46106;51.468;5.814;2023-07-22T10:40:26;101020.00;;;22.05;85.16
60244;BME280;46106;51.468;5.814;2023-07-22T10:43:15;101016.63;;;22.25;82.70
60244;BME280;46106;51.468;5.814;2023-07-22T10:46:10;101020.28;;;22.25;84.74
60244;BME280;46106;51.468;5.814;2023-07-22T10:49:08;101015.75;;;21.50;89.50
60244;BME280;46106;51.468;5.814;2023-07-22T10:51:57;101017.78;;;22.00;89.83
60244;BME280;46106;51.468;5.814;2023-07-22T10:54:43;101020.59;;;22.15;83.87
60244;BME280;46106;51.468;5.814;2023-07-22T10:57:29;101015.00;;;22.00;81.30
60244;BME280;46106;51.468;5.814;2023-07-22T11:00:20;101009.53;;;22.07;80.07
60244;BME280;46106;51.468;5.814;2023-07-22T11:03:13;101016.25;;;22.13;77.95
60244;BME280;46106;51.468;5.814;2023-07-22T11:05:59;101015.72;;;22.54;73.75
60244;BME280;46106;51.468;5.814;2023-07-22T11:08:45;101012.50;;;22.35;73.43
60244;BME280;46106;51.468;5.814;2023-07-22T11:11:43;101012.22;;;22.67;71.08
60244;BME280;46106;51.468;5.814;2023-07-22T11:14:49;101012.47;;;22.50;69.68
60244;BME280;46106;51.468;5.814;2023-07-22T11:17:35;101009.63;;;22.14;73.00
60244;BME280;46106;51.468;5.814;2023-07-22T11:20:22;101008.00;;;22.05;72.09
60244;BME280;46106;51.468;5.814;2023-07-22T11:23:09;101007.78;;;22.72;65.98
60244;BME280;46106;51.468;5.814;2023-07-22T11:25:55;101008.19;;;22.33;65.84
60244;BME280;46106;51.468;5.814;2023-07-22T11:28:40;101009.34;;;22.38;66.77
60244;BME280;46106;51.468;5.814;2023-07-22T11:31:35;101003.34;;;22.27;66.21
60244;BME280;46106;51.468;5.814;2023-07-22T11:34:28;100998.81;;;22.77;65.65
60244;BME280;46106;51.468;5.814;2023-07-22T11:37:14;100987.38;;;22.93;65.06
60244;BME280;46106;51.468;5.814;2023-07-22T11:40:01;100994.25;;;23.12;65.21
60244;BME280;46106;51.468;5.814;2023-07-22T11:42:47;100980.69;;;22.66;64.14
60244;BME280;46106;51.468;5.814;2023-07-22T11:45:34;100986.06;;;22.68;63.70
60244;BME280;46106;51.468;5.814;2023-07-22T11:48:23;100977.75;;;22.38;65.71
60244;BME280;46106;51.468;5.814;2023-07-22T11:51:09;100981.13;;;22.70;65.99
60244;BME280;46106;51.468;5.814;2023-07-22T11:53:56;100977.69;;;23.11;64.85
60244;BME280;46106;51.468;5.814;2023-07-22T11:56:41;100977.22;;;22.86;65.06
60244;BME280;46106;51.468;5.814;2023-07-22T12:02:22;100965.72;;;23.17;65.96
60244;BME280;46106;51.468;5.814;2023-07-22T12:05:08;100954.94;;;23.14;66.62
60244;BME280;46106;51.468;5.814;2023-07-22T12:07:54;100967.03;;;23.21;64.16
60244;BME280;46106;51.468;5.814;2023-07-22T12:10:40;100965.44;;;22.90;63.18
60244;BME280;46106;51.468;5.814;2023-07-22T12:13:26;100955.75;;;23.36;62.78
60244;BME280;46106;51.468;5.814;2023-07-22T12:16:12;100955.84;;;23.21;60.99
60244;BME280;46106;51.468;5.814;2023-07-22T12:19:01;100967.53;;;23.31;60.96
60244;BME280;46106;51.468;5.814;2023-07-22T12:21:46;100966.53;;;23.11;61.31
60244;BME280;46106;51.468;5.814;2023-07-22T12:24:34;100966.38;;;22.76;63.17
60244;BME280;46106;51.468;5.814;2023-07-22T12:27:19;100964.13;;;23.08;60.68
60244;BME280;46106;51.468;5.814;2023-07-22T12:30:08;100962.19;;;22.87;63.07
60244;BME280;46106;51.468;5.814;2023-07-22T12:32:54;100948.97;;;23.17;61.27
60244;BME280;46106;51.468;5.814;2023-07-22T12:35:40;100948.97;;;23.17;61.02
60244;BME280;46106;51.468;5.814;2023-07-22T12:38:26;100951.00;;;22.87;61.15
60244;BME280;46106;51.468;5.814;2023-07-22T12:41:12;100947.16;;;22.88;60.33
60244;BME280;46106;51.468;5.814;2023-07-22T12:43:57;100951.16;;;22.57;60.56
60244;BME280;46106;51.468;5.814;2023-07-22T12:46:43;100942.44;;;23.10;60.10
60244;BME280;46106;51.468;5.814;2023-07-22T12:49:29;100941.38;;;22.89;60.85
60244;BME280;46106;51.468;5.814;2023-07-22T12:52:15;100935.50;;;23.06;60.15
60244;BME280;46106;51.468;5.814;2023-07-22T12:55:01;100939.34;;;23.05;59.54
60244;BME280;46106;51.468;5.814;2023-07-22T12:57:47;100939.34;;;23.26;58.82
60244;BME280;46106;51.468;5.814;2023-07-22T13:00:33;100936.00;;;22.88;59.74
60244;BME280;46106;51.468;5.814;2023-07-22T13:03:18;100947.13;;;23.31;58.66
60244;BME280;46106;51.468;5.814;2023-07-22T13:06:04;100930.69;;;22.71;60.08
60244;BME280;46106;51.468;5.814;2023-07-22T13:08:50;100920.53;;;23.13;59.12
60244;BME280;46106;51.468;5.814;2023-07-22T13:11:36;100927.16;;;22.63;59.87
60244;BME280;46106;51.468;5.814;2023-07-22T13:14:22;100933.81;;;22.62;59.42
60244;BME280;46106;51.468;5.814;2023-07-22T13:17:07;100927.06;;;22.99;59.90
60244;BME280;46106;51.468;5.814;2023-07-22T13:19:53;100921.94;;;23.03;58.56
60244;BME280;46106;51.468;5.814;2023-07-22T13:22:39;100918.88;;;23.19;57.66
60244;BME280;46106;51.468;5.814;2023-07-22T13:25:25;100924.50;;;23.26;56.59
60244;BME280;46106;51.468;5.814;2023-07-22T13:28:11;100924.31;;;23.62;56.24
60244;BME280;46106;51.468;5.814;2023-07-22T13:30:57;100919.66;;;23.70;56.56
60244;BME280;46106;51.468;5.814;2023-07-22T13:33:42;100911.41;;;23.55;54.76
60244;BME280;46106;51.468;5.814;2023-07-22T13:36:28;100911.56;;;23.46;55.25
60244;BME280;46106;51.468;5.814;2023-07-22T13:39:14;100904.88;;;23.82;54.98
60244;BME280;46106;51.468;5.814;2023-07-22T13:42:00;100903.88;;;23.97;54.37
60244;BME280;46106;51.468;5.814;2023-07-22T13:44:46;100900.59;;;23.87;53.83
60244;BME280;46106;51.468;5.814;2023-07-22T13:47:31;100898.53;;;23.67;54.19
60244;BME280;46106;51.468;5.814;2023-07-22T13:50:18;100896.13;;;23.57;53.80
60244;BME280;46106;51.468;5.814;2023-07-22T13:53:04;100898.31;;;23.27;53.83
60244;BME280;46106;51.468;5.814;2023-07-22T13:55:49;100889.41;;;23.45;53.32
60244;BME280;46106;51.468;5.814;2023-07-22T13:58:35;100884.69;;;23.94;52.56
60244;BME280;46106;51.468;5.814;2023-07-22T14:01:21;100877.22;;;24.01;50.45
60244;BME280;46106;51.468;5.814;2023-07-22T14:04:07;100880.41;;;23.91;51.71
60244;BME280;46106;51.468;5.814;2023-07-22T14:06:53;100877.28;;;23.73;50.49
60244;BME280;46106;51.468;5.814;2023-07-22T14:09:38;100882.66;;;24.22;50.19
60244;BME280;46106;51.468;5.814;2023-07-22T14:12:24;100889.16;;;24.43;49.11
60244;BME280;46106;51.468;5.814;2023-07-22T14:15:10;100880.94;;;24.35;50.25
60244;BME280;46106;51.468;5.814;2023-07-22T14:17:56;100880.69;;;24.16;48.44
60244;BME280;46106;51.468;5.814;2023-07-22T14:20:42;100876.44;;;24.27;48.81
60244;BME280;46106;51.468;5.814;2023-07-22T14:23:27;100879.03;;;24.35;46.79
60244;BME280;46106;51.468;5.814;2023-07-22T14:26:16;100880.16;;;24.61;46.31
60244;BME280;46106;51.468;5.814;2023-07-22T14:29:02;100882.00;;;24.14;46.53